createdAt,value
2019-06-07T00:01:21.758Z,18.30
2019-06-07T00:06:25.914Z,18.24
2019-06-07T00:11:29.194Z,17.98
2019-06-07T00:16:32.192Z,18.10
2019-06-07T00:22:13.553Z,17.91
2019-06-07T00:26:57.284Z,17.81
2019-06-07T00:31:45.329Z,17.78
2019-06-07T00:36:48.813Z,17.69
2019-06-07T00:41:52.072Z,17.64
2019-06-07T00:46:55.769Z,17.69
2019-06-07T00:51:58.906Z,17.63
2019-06-07T00:57:01.901Z,17.93
2019-06-07T01:02:05.553Z,18.13
2019-06-07T01:07:08.828Z,18.24
2019-06-07T01:12:14.115Z,18.35
2019-06-07T01:17:40.048Z,18.39
2019-06-07T01:22:30.479Z,18.25
2019-06-07T01:27:33.616Z,18.08
2019-06-07T01:32:36.727Z,18.06
2019-06-07T01:37:39.809Z,17.96
2019-06-07T01:42:42.858Z,18.07
2019-06-07T01:47:46.089Z,18.15
2019-06-07T01:52:49.279Z,18.24
2019-06-07T01:57:52.428Z,18.28
2019-06-07T02:02:55.606Z,18.22
2019-06-07T02:07:59.024Z,18.23
2019-06-07T02:13:02.032Z,18.30
2019-06-07T02:18:04.979Z,18.39
2019-06-07T02:23:08.230Z,18.42
2019-06-07T02:28:27.098Z,18.30
2019-06-07T02:33:16.079Z,18.23
2019-06-07T02:38:19.041Z,18.29
2019-06-07T02:43:22.191Z,18.16
2019-06-07T02:48:28.024Z,18.28
2019-06-07T02:53:33.678Z,18.29
2019-06-07T02:58:41.514Z,18.28
2019-06-07T03:03:40.766Z,18.27
2019-06-07T03:08:46.440Z,18.32
2019-06-07T03:13:50.361Z,18.47
2019-06-07T03:19:01.043Z,18.43
2019-06-07T03:24:04.452Z,18.46
2019-06-07T03:29:07.460Z,18.39
2019-06-07T03:34:10.436Z,18.45
2019-06-07T03:39:13.549Z,18.55
2019-06-07T03:44:16.540Z,18.60
2019-06-07T03:49:19.579Z,18.54
2019-06-07T03:54:22.675Z,18.51
2019-06-07T03:59:25.636Z,18.59
2019-06-07T04:04:29.782Z,18.74
2019-06-07T04:09:35.707Z,18.83
2019-06-07T04:15:10.156Z,18.90
2019-06-07T04:20:13.418Z,18.86
2019-06-07T04:25:16.495Z,18.69
2019-06-07T04:30:42.347Z,18.55
2019-06-07T04:35:45.489Z,18.72
2019-06-07T04:40:50.438Z,18.90
2019-06-07T04:45:55.746Z,18.99
2019-06-07T04:51:02.505Z,18.91
2019-06-07T04:56:05.586Z,19.04
2019-06-07T05:01:26.424Z,19.10
2019-06-07T05:06:15.458Z,19.16
2019-06-07T05:11:18.451Z,19.29
2019-06-07T05:16:21.409Z,19.28
2019-06-07T05:21:24.358Z,19.38
2019-06-07T05:26:27.732Z,19.08
2019-06-07T05:31:31.788Z,19.46
2019-06-07T05:36:37.581Z,19.92
2019-06-07T05:41:43.785Z,20.52
2019-06-07T05:46:47.187Z,20.73
2019-06-07T05:51:50.597Z,20.88
2019-06-07T05:56:53.566Z,21.21
2019-06-07T06:02:03.207Z,21.84
2019-06-07T06:07:01.620Z,22.15
2019-06-07T06:12:04.824Z,22.25
2019-06-07T06:17:07.985Z,21.85
2019-06-07T06:22:11.094Z,21.69
2019-06-07T06:27:55.169Z,21.84
2019-06-07T06:37:24.072Z,21.68
2019-06-07T06:42:27.321Z,21.93
2019-06-07T06:47:30.406Z,21.79
2019-06-07T06:52:33.662Z,22.26
2019-06-07T06:57:36.948Z,22.58
2019-06-07T07:03:30.192Z,22.66
2019-06-07T07:07:47.932Z,22.81
2019-06-07T07:12:52.494Z,22.78
2019-06-07T07:18:07.833Z,22.78
2019-06-07T07:23:01.200Z,23.37
2019-06-07T07:28:05.162Z,23.02
2019-06-07T07:33:08.239Z,23.16
2019-06-07T07:38:11.409Z,23.14
2019-06-07T07:43:16.087Z,23.03
2019-06-07T07:48:19.267Z,23.30
2019-06-07T07:53:22.419Z,23.06
2019-06-07T07:58:25.672Z,23.10
2019-06-07T08:03:28.880Z,22.97
2019-06-07T08:08:34.553Z,23.21
2019-06-07T08:13:38.995Z,23.68
2019-06-07T08:18:42.222Z,23.59
2019-06-07T08:23:47.404Z,24.25
2019-06-07T08:28:53.091Z,24.86
2019-06-07T08:33:57.049Z,24.31
2019-06-07T08:39:06.784Z,24.17
2019-06-07T08:44:22.724Z,24.36
2019-06-07T08:49:10.461Z,24.13
2019-06-07T08:54:22.170Z,24.32
2019-06-07T08:59:19.368Z,24.36
2019-06-07T09:04:22.391Z,24.95
2019-06-07T09:09:25.743Z,25.29
2019-06-07T09:14:28.709Z,25.14
2019-06-07T09:19:31.767Z,24.78
2019-06-07T09:24:34.852Z,25.07
2019-06-07T09:29:38.465Z,25.33
2019-06-07T09:34:41.575Z,25.31
2019-06-07T09:39:45.258Z,25.09
2019-06-07T09:44:48.352Z,25.17
2019-06-07T09:49:51.871Z,24.44
2019-06-07T09:55:09.229Z,25.11
2019-06-07T10:00:21.346Z,25.39
2019-06-07T10:05:12.173Z,24.58
2019-06-07T10:15:17.138Z,24.58
2019-06-07T10:20:20.586Z,24.88
2019-06-07T10:25:23.654Z,25.25
2019-06-07T10:30:26.762Z,24.95
2019-06-07T10:35:29.830Z,25.32
2019-06-07T10:40:32.804Z,25.43
2019-06-07T10:45:35.913Z,25.71
2019-06-07T10:50:39.151Z,25.15
2019-06-07T10:55:42.632Z,24.85
2019-06-07T11:00:45.747Z,25.13
2019-06-07T11:05:49.957Z,25.58
2019-06-07T11:10:53.179Z,25.47
2019-06-07T11:15:56.326Z,25.74
2019-06-07T11:20:59.440Z,25.49
2019-06-07T11:26:02.547Z,25.51
2019-06-07T11:31:06.322Z,25.65
2019-06-07T11:36:10.678Z,25.39
2019-06-07T11:41:13.854Z,25.97
2019-06-07T11:46:18.316Z,26.25
2019-06-07T11:51:21.548Z,26.50
2019-06-07T11:56:24.631Z,26.78
2019-06-07T12:01:28.060Z,26.62
2019-06-07T12:06:31.160Z,26.56
2019-06-07T12:11:34.201Z,26.28
2019-06-07T12:16:37.331Z,26.67
2019-06-07T12:21:42.147Z,26.22
2019-06-07T12:26:45.215Z,26.08
2019-06-07T12:31:48.304Z,26.34
2019-06-07T12:36:51.792Z,26.30
2019-06-07T12:41:55.017Z,26.31
2019-06-07T12:46:58.016Z,26.61
2019-06-07T12:52:01.200Z,26.55
2019-06-07T12:57:04.750Z,26.50
2019-06-07T13:02:08.196Z,26.81
2019-06-07T13:07:11.278Z,26.76
2019-06-07T13:12:15.455Z,26.95
2019-06-07T13:17:20.255Z,26.87
2019-06-07T13:22:24.390Z,26.74
2019-06-07T13:27:32.798Z,27.07
2019-06-07T13:32:32.750Z,26.91
2019-06-07T13:37:37.568Z,27.25
2019-06-07T13:42:40.764Z,27.54
2019-06-07T13:47:46.101Z,27.42
2019-06-07T13:52:48.584Z,27.46
2019-06-07T13:57:51.770Z,27.54
2019-06-07T14:02:55.055Z,27.63
2019-06-07T14:07:58.128Z,27.82
2019-06-07T14:13:01.250Z,27.52
2019-06-07T14:18:05.580Z,27.21
2019-06-07T14:23:08.801Z,27.30
2019-06-07T14:28:12.110Z,27.37
2019-06-07T14:33:15.220Z,27.52
2019-06-07T14:38:18.506Z,27.13
2019-06-07T14:43:23.142Z,27.22
2019-06-07T14:48:26.411Z,27.26
2019-06-07T14:53:30.890Z,27.10
2019-06-07T14:58:40.071Z,27.12
2019-06-07T15:03:39.313Z,27.36
2019-06-07T15:08:42.587Z,27.37
2019-06-07T15:13:45.677Z,27.18
2019-06-07T15:18:48.814Z,27.35
2019-06-07T15:23:51.834Z,27.49
2019-06-07T15:28:54.928Z,27.40
2019-06-07T15:33:58.028Z,27.48
2019-06-07T15:39:01.422Z,27.49
2019-06-07T15:44:04.781Z,27.57
2019-06-07T15:49:07.944Z,27.48
2019-06-07T15:54:11.150Z,27.58
2019-06-07T15:59:14.262Z,27.70
2019-06-07T16:04:17.371Z,27.87
2019-06-07T16:09:20.575Z,27.81
2019-06-07T16:14:26.242Z,27.59
2019-06-07T16:19:29.230Z,27.46
2019-06-07T16:24:33.579Z,27.55
2019-06-07T16:29:36.843Z,27.39
2019-06-07T16:34:41.761Z,27.46
2019-06-07T16:39:44.759Z,27.17
2019-06-07T16:44:48.946Z,27.12
2019-06-07T16:49:52.176Z,27.18
2019-06-07T16:54:55.325Z,27.25
2019-06-07T17:00:06.737Z,27.02
2019-06-07T17:05:10.256Z,27.17
2019-06-07T17:10:16.182Z,26.94
2019-06-07T17:15:19.735Z,27.09
2019-06-07T17:20:23.327Z,26.75
2019-06-07T17:25:26.364Z,26.82
2019-06-07T17:30:29.586Z,26.54
2019-06-07T17:35:32.784Z,26.70
2019-06-07T17:40:35.989Z,26.59
2019-06-07T17:45:39.359Z,26.50
2019-06-07T17:50:43.702Z,26.58
2019-06-07T17:55:48.176Z,26.56
2019-06-07T18:00:53.065Z,26.13
2019-06-07T18:05:59.034Z,26.05
2019-06-07T18:11:02.222Z,26.06
2019-06-07T18:16:08.479Z,25.84
2019-06-07T18:21:11.715Z,25.66
2019-06-07T18:26:15.976Z,25.61
2019-06-07T18:31:19.105Z,25.54
2019-06-07T18:36:22.455Z,25.46
2019-06-07T18:41:25.931Z,25.39
2019-06-07T18:46:29.060Z,25.35
2019-06-07T18:51:32.275Z,25.24
2019-06-07T18:56:35.415Z,25.18
2019-06-07T19:01:38.820Z,25.13
2019-06-07T19:06:41.886Z,25.01
2019-06-07T19:11:44.955Z,24.94
2019-06-07T19:16:49.337Z,24.89
2019-06-07T19:21:53.892Z,24.84
2019-06-07T19:26:58.635Z,24.68
2019-06-07T19:32:01.997Z,24.14
2019-06-07T19:37:05.037Z,24.00
2019-06-07T19:42:08.220Z,23.78
2019-06-07T19:47:11.514Z,23.70
2019-06-07T19:52:15.129Z,23.62
2019-06-07T19:57:18.353Z,23.67
2019-06-07T20:02:21.551Z,23.73
2019-06-07T20:07:24.882Z,23.68
2019-06-07T20:12:30.271Z,23.45
2019-06-07T20:17:32.757Z,23.01
2019-06-07T20:22:36.079Z,23.09
2019-06-07T20:27:39.348Z,22.85
2019-06-07T20:32:44.342Z,22.73
2019-06-07T20:37:47.497Z,22.85
2019-06-07T20:42:57.413Z,22.87
2019-06-07T20:48:01.985Z,22.92
2019-06-07T20:53:07.039Z,22.95
2019-06-07T20:58:10.443Z,22.88
2019-06-07T21:03:15.645Z,22.79
2019-06-07T21:08:18.764Z,22.70
2019-06-07T21:13:22.035Z,22.79
2019-06-07T21:18:25.187Z,22.75
2019-06-07T21:23:28.508Z,22.65
2019-06-07T21:28:33.648Z,22.24
2019-06-07T21:33:38.186Z,21.73
2019-06-07T21:38:41.348Z,21.47
2019-06-07T21:43:44.446Z,21.48
2019-06-07T21:48:47.596Z,21.41
2019-06-07T21:53:53.881Z,21.38
2019-06-07T21:58:57.298Z,21.07
2019-06-07T22:04:03.478Z,21.03
2019-06-07T22:09:09.944Z,20.86
2019-06-07T22:14:14.522Z,20.89
2019-06-07T22:19:17.959Z,20.75
2019-06-07T22:24:21.084Z,20.45
2019-06-07T22:29:24.255Z,20.26
2019-06-07T22:34:27.498Z,20.11
2019-06-07T22:39:30.738Z,19.82
2019-06-07T22:44:33.822Z,19.86
2019-06-07T22:49:36.972Z,19.92
2019-06-07T22:54:40.205Z,19.78
2019-06-07T22:59:43.340Z,20.09
2019-06-07T23:04:46.600Z,19.68
2019-06-07T23:09:49.857Z,19.81
2019-06-07T23:14:52.990Z,19.89
2019-06-07T23:19:56.100Z,19.99
2019-06-07T23:25:02.865Z,19.17
2019-06-07T23:30:10.588Z,18.93
2019-06-07T23:35:14.817Z,18.85
2019-06-07T23:40:19.450Z,19.08
2019-06-07T23:45:22.791Z,19.34
2019-06-07T23:50:25.928Z,19.49
2019-06-07T23:55:30.439Z,19.72
